Terminal Aerodrome Forecast
Issued by NWS

Home | Current Version | Previous Version | Text Only | Print | Product List | Glossary On
Versions: 1 2 3 4 5 6 7 8 9 10 11 12
000
FTUS46 KHNX 061125
TAFBFL
TAF
KBFL 061125Z 0612/0712 15003KT P6SM SCT029 BKN035 OVC060
     FM061800 26006KT P6SM VCSH BKN050
     FM070600 VRB04KT P6SM OVC050 PROB30 0706/0709 P6SM -RA=

USA.gov is the U.S. government's official web portal to all federal, state and local government web resources and services.